Cleveland, North Carolina
Current Conditions -  °F | °C
As of 12:55 AM on Friday 28 Nov 2014 (Local Time) from KRUQ Reporting Station
Scattered Clouds Scattered Clouds  
Wind Chill: -3°   Ceiling: Unl
Heat Index:   Visibility: 10mi
Dew Point: -6°   Wind: 7mph
Humidity: 64%   Direction: 310°NW
Pressure: 30.29"   Gusts: NA
Location:  35.73°N, 80.68°W
Report Text: KRUQ 280555Z AUTO 31006KT 10SM SCT050 00/M06 A3029 RMK AO2 T00011060 10044 20000 400900000
Loading
Personal Weather Stations






























Interactive Weather Map New forecast layout! Learn more

10-Day Weather Forecast

Advertisements
Track Severe Weather on mobile